sensor_id;sensor_type;location;lat;lon;timestamp;P1;durP1;ratioP1;P2;durP2;ratioP2
12691;SDS011;6410;57.636;18.304;2022-07-29T00:01:18;5.68;;;5.18;;
12691;SDS011;6410;57.636;18.304;2022-07-29T00:03:46;5.30;;;5.00;;
12691;SDS011;6410;57.636;18.304;2022-07-29T00:06:15;4.38;;;4.18;;
12691;SDS011;6410;57.636;18.304;2022-07-29T00:08:43;3.83;;;3.72;;
12691;SDS011;6410;57.636;18.304;2022-07-29T00:11:13;3.92;;;3.78;;
12691;SDS011;6410;57.636;18.304;2022-07-29T00:13:41;4.10;;;3.90;;
12691;SDS011;6410;57.636;18.304;2022-07-29T00:16:16;3.40;;;3.30;;
12691;SDS011;6410;57.636;18.304;2022-07-29T00:18:44;4.05;;;3.75;;
12691;SDS011;6410;57.636;18.304;2022-07-29T00:21:13;3.13;;;3.03;;
12691;SDS011;6410;57.636;18.304;2022-07-29T00:23:41;3.22;;;3.13;;
12691;SDS011;6410;57.636;18.304;2022-07-29T00:26:09;3.83;;;3.63;;
12691;SDS011;6410;57.636;18.304;2022-07-29T00:28:39;3.58;;;3.42;;
12691;SDS011;6410;57.636;18.304;2022-07-29T00:31:07;4.13;;;3.50;;
12691;SDS011;6410;57.636;18.304;2022-07-29T00:33:35;3.85;;;3.50;;
12691;SDS011;6410;57.636;18.304;2022-07-29T00:36:04;3.67;;;3.57;;
12691;SDS011;6410;57.636;18.304;2022-07-29T00:38:31;3.50;;;3.40;;
12691;SDS011;6410;57.636;18.304;2022-07-29T00:41:00;3.80;;;3.60;;
12691;SDS011;6410;57.636;18.304;2022-07-29T00:43:28;3.53;;;3.35;;
12691;SDS011;6410;57.636;18.304;2022-07-29T00:45:58;3.40;;;3.30;;
12691;SDS011;6410;57.636;18.304;2022-07-29T00:48:26;3.10;;;3.00;;
12691;SDS011;6410;57.636;18.304;2022-07-29T00:50:54;4.00;;;3.80;;
12691;SDS011;6410;57.636;18.304;2022-07-29T00:53:24;3.97;;;3.78;;
12691;SDS011;6410;57.636;18.304;2022-07-29T00:55:54;3.70;;;3.40;;
12691;SDS011;6410;57.636;18.304;2022-07-29T00:58:22;4.00;;;3.70;;
12691;SDS011;6410;57.636;18.304;2022-07-29T01:00:51;3.55;;;3.45;;
12691;SDS011;6410;57.636;18.304;2022-07-29T01:03:21;3.75;;;3.55;;
12691;SDS011;6410;57.636;18.304;2022-07-29T01:05:49;3.27;;;3.17;;
12691;SDS011;6410;57.636;18.304;2022-07-29T01:08:18;3.78;;;3.58;;
12691;SDS011;6410;57.636;18.304;2022-07-29T01:10:47;4.47;;;4.28;;
12691;SDS011;6410;57.636;18.304;2022-07-29T01:13:18;3.90;;;3.70;;
12691;SDS011;6410;57.636;18.304;2022-07-29T01:15:47;3.78;;;3.67;;
12691;SDS011;6410;57.636;18.304;2022-07-29T01:18:24;3.70;;;3.60;;
12691;SDS011;6410;57.636;18.304;2022-07-29T01:21:09;3.30;;;3.20;;
12691;SDS011;6410;57.636;18.304;2022-07-29T01:23:54;3.65;;;3.47;;
12691;SDS011;6410;57.636;18.304;2022-07-29T01:26:38;3.83;;;3.63;;
12691;SDS011;6410;57.636;18.304;2022-07-29T01:29:14;3.50;;;3.40;;
12691;SDS011;6410;57.636;18.304;2022-07-29T01:31:48;3.63;;;3.50;;
12691;SDS011;6410;57.636;18.304;2022-07-29T01:34:28;3.70;;;3.40;;
12691;SDS011;6410;57.636;18.304;2022-07-29T01:37:05;3.53;;;3.42;;
12691;SDS011;6410;57.636;18.304;2022-07-29T01:39:47;3.83;;;3.63;;
12691;SDS011;6410;57.636;18.304;2022-07-29T01:42:20;3.90;;;3.60;;
12691;SDS011;6410;57.636;18.304;2022-07-29T01:45:00;3.80;;;3.60;;
12691;SDS011;6410;57.636;18.304;2022-07-29T01:47:35;4.35;;;3.60;;
12691;SDS011;6410;57.636;18.304;2022-07-29T01:50:08;3.80;;;3.70;;
12691;SDS011;6410;57.636;18.304;2022-07-29T01:52:42;4.25;;;3.95;;
12691;SDS011;6410;57.636;18.304;2022-07-29T01:55:17;3.83;;;3.70;;
12691;SDS011;6410;57.636;18.304;2022-07-29T01:57:47;3.90;;;3.80;;
12691;SDS011;6410;57.636;18.304;2022-07-29T02:00:18;4.10;;;3.90;;
12691;SDS011;6410;57.636;18.304;2022-07-29T02:02:47;4.30;;;4.10;;
12691;SDS011;6410;57.636;18.304;2022-07-29T02:05:18;4.40;;;4.20;;
12691;SDS011;6410;57.636;18.304;2022-07-29T02:07:47;4.35;;;4.25;;
12691;SDS011;6410;57.636;18.304;2022-07-29T02:10:17;4.50;;;4.20;;
12691;SDS011;6410;57.636;18.304;2022-07-29T02:12:51;4.30;;;4.20;;
12691;SDS011;6410;57.636;18.304;2022-07-29T02:15:23;4.20;;;4.10;;
12691;SDS011;6410;57.636;18.304;2022-07-29T02:17:53;4.95;;;4.75;;
12691;SDS011;6410;57.636;18.304;2022-07-29T02:20:25;4.55;;;4.35;;
12691;SDS011;6410;57.636;18.304;2022-07-29T02:22:55;4.50;;;4.40;;
12691;SDS011;6410;57.636;18.304;2022-07-29T02:25:25;4.22;;;4.13;;
12691;SDS011;6410;57.636;18.304;2022-07-29T02:28:03;5.03;;;4.82;;
12691;SDS011;6410;57.636;18.304;2022-07-29T02:30:36;4.47;;;4.28;;
12691;SDS011;6410;57.636;18.304;2022-07-29T02:33:07;4.55;;;4.25;;
12691;SDS011;6410;57.636;18.304;2022-07-29T02:35:37;4.25;;;4.15;;
12691;SDS011;6410;57.636;18.304;2022-07-29T02:38:08;4.30;;;4.20;;
12691;SDS011;6410;57.636;18.304;2022-07-29T02:40:56;3.67;;;3.58;;
12691;SDS011;6410;57.636;18.304;2022-07-29T02:43:27;3.80;;;3.70;;
12691;SDS011;6410;57.636;18.304;2022-07-29T02:45:59;3.33;;;3.13;;
12691;SDS011;6410;57.636;18.304;2022-07-29T02:48:38;3.70;;;3.60;;
12691;SDS011;6410;57.636;18.304;2022-07-29T02:51:12;3.78;;;3.55;;
12691;SDS011;6410;57.636;18.304;2022-07-29T02:54:06;3.40;;;3.30;;
12691;SDS011;6410;57.636;18.304;2022-07-29T02:56:36;3.25;;;3.00;;
12691;SDS011;6410;57.636;18.304;2022-07-29T02:59:08;3.15;;;2.90;;
12691;SDS011;6410;57.636;18.304;2022-07-29T03:01:41;2.85;;;2.75;;
12691;SDS011;6410;57.636;18.304;2022-07-29T03:04:13;2.60;;;2.50;;
12691;SDS011;6410;57.636;18.304;2022-07-29T03:06:43;3.00;;;2.90;;
12691;SDS011;6410;57.636;18.304;2022-07-29T03:09:13;3.08;;;2.92;;
12691;SDS011;6410;57.636;18.304;2022-07-29T03:11:42;2.70;;;2.60;;
12691;SDS011;6410;57.636;18.304;2022-07-29T03:14:16;2.57;;;2.47;;
12691;SDS011;6410;57.636;18.304;2022-07-29T03:16:48;2.60;;;2.50;;
12691;SDS011;6410;57.636;18.304;2022-07-29T03:19:18;2.30;;;2.30;;
12691;SDS011;6410;57.636;18.304;2022-07-29T03:21:47;2.60;;;2.50;;
12691;SDS011;6410;57.636;18.304;2022-07-29T03:27:03;2.38;;;2.28;;
12691;SDS011;6410;57.636;18.304;2022-07-29T03:29:32;2.42;;;2.40;;
12691;SDS011;6410;57.636;18.304;2022-07-29T03:32:03;2.17;;;2.17;;
12691;SDS011;6410;57.636;18.304;2022-07-29T03:34:34;2.60;;;2.40;;
12691;SDS011;6410;57.636;18.304;2022-07-29T03:37:04;2.70;;;2.60;;
12691;SDS011;6410;57.636;18.304;2022-07-29T03:39:34;2.58;;;2.47;;
12691;SDS011;6410;57.636;18.304;2022-07-29T03:42:06;3.55;;;2.72;;
12691;SDS011;6410;57.636;18.304;2022-07-29T03:44:38;2.20;;;2.20;;
12691;SDS011;6410;57.636;18.304;2022-07-29T03:47:09;2.70;;;2.60;;
12691;SDS011;6410;57.636;18.304;2022-07-29T03:49:41;3.13;;;2.80;;
12691;SDS011;6410;57.636;18.304;2022-07-29T03:52:11;2.97;;;2.65;;
12691;SDS011;6410;57.636;18.304;2022-07-29T03:54:40;2.90;;;2.80;;
12691;SDS011;6410;57.636;18.304;2022-07-29T03:57:09;3.10;;;3.00;;
12691;SDS011;6410;57.636;18.304;2022-07-29T03:59:39;3.20;;;3.10;;
12691;SDS011;6410;57.636;18.304;2022-07-29T04:02:11;3.03;;;2.92;;
12691;SDS011;6410;57.636;18.304;2022-07-29T04:04:42;3.60;;;3.40;;
12691;SDS011;6410;57.636;18.304;2022-07-29T04:07:11;3.75;;;3.53;;
12691;SDS011;6410;57.636;18.304;2022-07-29T04:09:40;3.63;;;3.42;;
12691;SDS011;6410;57.636;18.304;2022-07-29T04:12:09;3.50;;;3.40;;
12691;SDS011;6410;57.636;18.304;2022-07-29T04:14:37;4.03;;;3.75;;
12691;SDS011;6410;57.636;18.304;2022-07-29T04:17:07;4.00;;;3.85;;
12691;SDS011;6410;57.636;18.304;2022-07-29T04:19:36;3.90;;;3.80;;
12691;SDS011;6410;57.636;18.304;2022-07-29T04:22:05;4.05;;;3.95;;
12691;SDS011;6410;57.636;18.304;2022-07-29T04:24:34;4.43;;;4.10;;
12691;SDS011;6410;57.636;18.304;2022-07-29T04:27:02;4.30;;;4.20;;
12691;SDS011;6410;57.636;18.304;2022-07-29T04:29:30;4.90;;;4.70;;
12691;SDS011;6410;57.636;18.304;2022-07-29T04:31:59;5.20;;;4.70;;
12691;SDS011;6410;57.636;18.304;2022-07-29T04:34:27;5.03;;;4.82;;
12691;SDS011;6410;57.636;18.304;2022-07-29T04:36:57;6.63;;;6.43;;
12691;SDS011;6410;57.636;18.304;2022-07-29T04:39:25;6.43;;;6.13;;
12691;SDS011;6410;57.636;18.304;2022-07-29T04:41:55;6.32;;;6.13;;
12691;SDS011;6410;57.636;18.304;2022-07-29T04:44:24;6.15;;;5.95;;
12691;SDS011;6410;57.636;18.304;2022-07-29T04:46:54;6.22;;;6.03;;
12691;SDS011;6410;57.636;18.304;2022-07-29T04:49:23;6.05;;;5.85;;
12691;SDS011;6410;57.636;18.304;2022-07-29T04:51:52;5.82;;;5.63;;
12691;SDS011;6410;57.636;18.304;2022-07-29T04:54:22;6.15;;;5.85;;
12691;SDS011;6410;57.636;18.304;2022-07-29T04:56:51;6.10;;;5.70;;
12691;SDS011;6410;57.636;18.304;2022-07-29T04:59:19;6.00;;;5.80;;
12691;SDS011;6410;57.636;18.304;2022-07-29T05:01:48;5.80;;;5.50;;
12691;SDS011;6410;57.636;18.304;2022-07-29T05:04:16;5.80;;;5.60;;
12691;SDS011;6410;57.636;18.304;2022-07-29T05:06:46;6.10;;;5.90;;
12691;SDS011;6410;57.636;18.304;2022-07-29T05:09:14;5.90;;;5.70;;
12691;SDS011;6410;57.636;18.304;2022-07-29T05:11:44;5.97;;;5.78;;
12691;SDS011;6410;57.636;18.304;2022-07-29T05:14:12;5.72;;;5.53;;
12691;SDS011;6410;57.636;18.304;2022-07-29T05:16:41;6.80;;;6.50;;
12691;SDS011;6410;57.636;18.304;2022-07-29T05:19:09;6.55;;;6.35;;
12691;SDS011;6410;57.636;18.304;2022-07-29T05:21:40;6.47;;;6.28;;
12691;SDS011;6410;57.636;18.304;2022-07-29T05:24:08;6.60;;;6.40;;
12691;SDS011;6410;57.636;18.304;2022-07-29T05:26:38;6.10;;;5.90;;
12691;SDS011;6410;57.636;18.304;2022-07-29T05:29:08;6.45;;;6.25;;
12691;SDS011;6410;57.636;18.304;2022-07-29T05:31:57;6.65;;;6.45;;
12691;SDS011;6410;57.636;18.304;2022-07-29T05:34:25;6.50;;;6.00;;
12691;SDS011;6410;57.636;18.304;2022-07-29T05:36:54;6.30;;;6.10;;
12691;SDS011;6410;57.636;18.304;2022-07-29T05:39:22;6.10;;;5.90;;
12691;SDS011;6410;57.636;18.304;2022-07-29T05:42:11;5.85;;;5.65;;
12691;SDS011;6410;57.636;18.304;2022-07-29T05:44:40;6.20;;;5.90;;
12691;SDS011;6410;57.636;18.304;2022-07-29T05:47:09;5.43;;;5.22;;
12691;SDS011;6410;57.636;18.304;2022-07-29T05:49:37;5.38;;;5.18;;
12691;SDS011;6410;57.636;18.304;2022-07-29T05:52:06;5.40;;;5.20;;
12691;SDS011;6410;57.636;18.304;2022-07-29T05:54:35;5.20;;;5.00;;
12691;SDS011;6410;57.636;18.304;2022-07-29T05:57:03;5.03;;;4.82;;
12691;SDS011;6410;57.636;18.304;2022-07-29T05:59:35;5.00;;;4.80;;
12691;SDS011;6410;57.636;18.304;2022-07-29T06:02:06;5.03;;;4.80;;
12691;SDS011;6410;57.636;18.304;2022-07-29T06:04:34;4.85;;;4.70;;
12691;SDS011;6410;57.636;18.304;2022-07-29T06:07:03;4.30;;;4.10;;
12691;SDS011;6410;57.636;18.304;2022-07-29T06:09:31;4.00;;;3.90;;
12691;SDS011;6410;57.636;18.304;2022-07-29T06:12:01;3.33;;;3.22;;
12691;SDS011;6410;57.636;18.304;2022-07-29T06:14:30;3.15;;;2.97;;
12691;SDS011;6410;57.636;18.304;2022-07-29T06:16:59;3.55;;;3.45;;
12691;SDS011;6410;57.636;18.304;2022-07-29T06:19:28;3.03;;;2.92;;
12691;SDS011;6410;57.636;18.304;2022-07-29T06:21:56;3.10;;;2.90;;
12691;SDS011;6410;57.636;18.304;2022-07-29T06:24:25;2.75;;;2.65;;
12691;SDS011;6410;57.636;18.304;2022-07-29T06:26:53;2.80;;;2.70;;
12691;SDS011;6410;57.636;18.304;2022-07-29T06:29:22;2.60;;;2.50;;
12691;SDS011;6410;57.636;18.304;2022-07-29T06:31:50;2.70;;;2.60;;
12691;SDS011;6410;57.636;18.304;2022-07-29T06:34:19;2.83;;;2.63;;
12691;SDS011;6410;57.636;18.304;2022-07-29T06:36:49;2.63;;;2.53;;
12691;SDS011;6410;57.636;18.304;2022-07-29T06:39:19;2.60;;;2.50;;
12691;SDS011;6410;57.636;18.304;2022-07-29T06:41:47;2.30;;;2.20;;
12691;SDS011;6410;57.636;18.304;2022-07-29T06:44:16;2.50;;;2.40;;
12691;SDS011;6410;57.636;18.304;2022-07-29T06:46:45;2.80;;;2.60;;
12691;SDS011;6410;57.636;18.304;2022-07-29T06:49:15;2.90;;;2.72;;
12691;SDS011;6410;57.636;18.304;2022-07-29T06:51:43;2.63;;;2.53;;
12691;SDS011;6410;57.636;18.304;2022-07-29T06:54:14;2.70;;;2.60;;
12691;SDS011;6410;57.636;18.304;2022-07-29T06:56:43;3.20;;;3.00;;
12691;SDS011;6410;57.636;18.304;2022-07-29T06:59:11;4.03;;;3.30;;
12691;SDS011;6410;57.636;18.304;2022-07-29T07:01:41;3.50;;;3.10;;
12691;SDS011;6410;57.636;18.304;2022-07-29T07:04:10;3.10;;;3.00;;
12691;SDS011;6410;57.636;18.304;2022-07-29T07:06:40;3.42;;;3.33;;
12691;SDS011;6410;57.636;18.304;2022-07-29T07:09:08;3.33;;;3.20;;
12691;SDS011;6410;57.636;18.304;2022-07-29T07:11:38;3.92;;;3.70;;
12691;SDS011;6410;57.636;18.304;2022-07-29T07:14:06;3.13;;;3.03;;
12691;SDS011;6410;57.636;18.304;2022-07-29T07:16:35;3.42;;;3.33;;
12691;SDS011;6410;57.636;18.304;2022-07-29T07:19:03;3.10;;;2.90;;
12691;SDS011;6410;57.636;18.304;2022-07-29T07:21:32;13.80;;;6.70;;
12691;SDS011;6410;57.636;18.304;2022-07-29T07:24:01;2.90;;;2.80;;
12691;SDS011;6410;57.636;18.304;2022-07-29T07:26:29;3.58;;;3.47;;
12691;SDS011;6410;57.636;18.304;2022-07-29T07:28:59;3.40;;;3.30;;
12691;SDS011;6410;57.636;18.304;2022-07-29T07:31:28;3.90;;;3.80;;
12691;SDS011;6410;57.636;18.304;2022-07-29T07:33:56;3.50;;;3.40;;
12691;SDS011;6410;57.636;18.304;2022-07-29T07:36:25;3.30;;;3.20;;
12691;SDS011;6410;57.636;18.304;2022-07-29T07:38:53;3.15;;;3.05;;
12691;SDS011;6410;57.636;18.304;2022-07-29T07:41:21;3.60;;;3.50;;
12691;SDS011;6410;57.636;18.304;2022-07-29T07:43:50;4.38;;;4.18;;
12691;SDS011;6410;57.636;18.304;2022-07-29T07:46:19;3.38;;;3.20;;
12691;SDS011;6410;57.636;18.304;2022-07-29T07:48:48;3.55;;;3.45;;
12691;SDS011;6410;57.636;18.304;2022-07-29T07:51:16;3.60;;;3.50;;
12691;SDS011;6410;57.636;18.304;2022-07-29T07:53:44;3.60;;;3.50;;
12691;SDS011;6410;57.636;18.304;2022-07-29T07:56:15;3.38;;;3.13;;
12691;SDS011;6410;57.636;18.304;2022-07-29T07:58:44;3.10;;;3.00;;
12691;SDS011;6410;57.636;18.304;2022-07-29T08:01:12;2.95;;;2.85;;
12691;SDS011;6410;57.636;18.304;2022-07-29T08:03:42;2.80;;;2.70;;
12691;SDS011;6410;57.636;18.304;2022-07-29T08:06:10;3.03;;;2.60;;
12691;SDS011;6410;57.636;18.304;2022-07-29T08:08:38;2.50;;;2.40;;
12691;SDS011;6410;57.636;18.304;2022-07-29T08:11:06;2.53;;;2.38;;
12691;SDS011;6410;57.636;18.304;2022-07-29T08:13:35;2.40;;;2.30;;
12691;SDS011;6410;57.636;18.304;2022-07-29T08:16:05;4.10;;;2.40;;
12691;SDS011;6410;57.636;18.304;2022-07-29T08:18:43;2.40;;;2.40;;
12691;SDS011;6410;57.636;18.304;2022-07-29T08:21:12;3.75;;;3.55;;
12691;SDS011;6410;57.636;18.304;2022-07-29T08:23:42;5.55;;;5.10;;
12691;SDS011;6410;57.636;18.304;2022-07-29T08:26:27;4.47;;;4.13;;
12691;SDS011;6410;57.636;18.304;2022-07-29T08:28:55;3.42;;;3.33;;
12691;SDS011;6410;57.636;18.304;2022-07-29T08:31:23;3.95;;;3.70;;
12691;SDS011;6410;57.636;18.304;2022-07-29T08:33:53;3.50;;;3.40;;
12691;SDS011;6410;57.636;18.304;2022-07-29T08:36:24;3.30;;;3.20;;
12691;SDS011;6410;57.636;18.304;2022-07-29T08:39:04;3.42;;;3.22;;
12691;SDS011;6410;57.636;18.304;2022-07-29T08:41:32;3.60;;;3.50;;
12691;SDS011;6410;57.636;18.304;2022-07-29T08:44:01;4.00;;;3.80;;
12691;SDS011;6410;57.636;18.304;2022-07-29T08:46:29;4.20;;;4.00;;
12691;SDS011;6410;57.636;18.304;2022-07-29T08:48:59;3.90;;;3.80;;
12691;SDS011;6410;57.636;18.304;2022-07-29T08:51:27;3.92;;;3.83;;
12691;SDS011;6410;57.636;18.304;2022-07-29T08:53:57;3.88;;;3.67;;
12691;SDS011;6410;57.636;18.304;2022-07-29T08:56:27;4.63;;;4.25;;
12691;SDS011;6410;57.636;18.304;2022-07-29T08:58:57;4.70;;;4.40;;
12691;SDS011;6410;57.636;18.304;2022-07-29T09:01:32;4.10;;;4.00;;
12691;SDS011;6410;57.636;18.304;2022-07-29T09:04:11;4.20;;;4.00;;
12691;SDS011;6410;57.636;18.304;2022-07-29T09:06:44;4.93;;;4.72;;
12691;SDS011;6410;57.636;18.304;2022-07-29T09:09:14;3.92;;;3.67;;
12691;SDS011;6410;57.636;18.304;2022-07-29T09:11:46;3.63;;;3.42;;
12691;SDS011;6410;57.636;18.304;2022-07-29T09:14:14;4.70;;;4.40;;
12691;SDS011;6410;57.636;18.304;2022-07-29T09:16:52;4.07;;;3.67;;
12691;SDS011;6410;57.636;18.304;2022-07-29T09:19:26;4.68;;;4.38;;
12691;SDS011;6410;57.636;18.304;2022-07-29T09:21:57;4.90;;;4.57;;
12691;SDS011;6410;57.636;18.304;2022-07-29T09:24:42;4.22;;;4.03;;
12691;SDS011;6410;57.636;18.304;2022-07-29T09:27:18;3.55;;;3.30;;
12691;SDS011;6410;57.636;18.304;2022-07-29T09:29:58;2.90;;;2.80;;
12691;SDS011;6410;57.636;18.304;2022-07-29T09:32:27;2.95;;;2.70;;
12691;SDS011;6410;57.636;18.304;2022-07-29T09:35:16;2.72;;;2.63;;
12691;SDS011;6410;57.636;18.304;2022-07-29T09:37:45;2.88;;;2.67;;
12691;SDS011;6410;57.636;18.304;2022-07-29T09:40:16;2.75;;;2.65;;
12691;SDS011;6410;57.636;18.304;2022-07-29T09:42:46;3.10;;;3.00;;
12691;SDS011;6410;57.636;18.304;2022-07-29T09:45:26;2.70;;;2.60;;
12691;SDS011;6410;57.636;18.304;2022-07-29T09:47:56;2.70;;;2.60;;
12691;SDS011;6410;57.636;18.304;2022-07-29T09:50:37;2.88;;;2.78;;
12691;SDS011;6410;57.636;18.304;2022-07-29T09:53:07;3.17;;;3.08;;
12691;SDS011;6410;57.636;18.304;2022-07-29T09:55:46;3.50;;;3.30;;
12691;SDS011;6410;57.636;18.304;2022-07-29T09:58:17;3.60;;;3.40;;
12691;SDS011;6410;57.636;18.304;2022-07-29T10:00:46;3.50;;;3.30;;
12691;SDS011;6410;57.636;18.304;2022-07-29T10:03:16;3.53;;;3.42;;
12691;SDS011;6410;57.636;18.304;2022-07-29T10:05:46;3.50;;;3.30;;
12691;SDS011;6410;57.636;18.304;2022-07-29T10:08:31;3.58;;;3.45;;
12691;SDS011;6410;57.636;18.304;2022-07-29T10:11:08;3.50;;;3.40;;
12691;SDS011;6410;57.636;18.304;2022-07-29T10:13:38;3.40;;;3.20;;
12691;SDS011;6410;57.636;18.304;2022-07-29T10:16:07;3.60;;;3.40;;
12691;SDS011;6410;57.636;18.304;2022-07-29T10:18:37;3.40;;;3.30;;
12691;SDS011;6410;57.636;18.304;2022-07-29T10:21:08;3.60;;;3.50;;
12691;SDS011;6410;57.636;18.304;2022-07-29T10:23:57;3.47;;;3.28;;
12691;SDS011;6410;57.636;18.304;2022-07-29T10:26:27;4.68;;;4.38;;
12691;SDS011;6410;57.636;18.304;2022-07-29T10:28:56;6.43;;;6.03;;
12691;SDS011;6410;57.636;18.304;2022-07-29T10:31:26;4.15;;;3.95;;
12691;SDS011;6410;57.636;18.304;2022-07-29T10:34:03;4.35;;;4.15;;
12691;SDS011;6410;57.636;18.304;2022-07-29T10:36:43;4.10;;;3.90;;
12691;SDS011;6410;57.636;18.304;2022-07-29T10:39:24;5.20;;;5.00;;
12691;SDS011;6410;57.636;18.304;2022-07-29T10:42:11;3.92;;;3.83;;
12691;SDS011;6410;57.636;18.304;2022-07-29T10:45:05;4.20;;;3.90;;
12691;SDS011;6410;57.636;18.304;2022-07-29T10:47:34;4.30;;;4.10;;
12691;SDS011;6410;57.636;18.304;2022-07-29T10:50:04;4.00;;;3.90;;
12691;SDS011;6410;57.636;18.304;2022-07-29T10:52:54;4.65;;;4.50;;
12691;SDS011;6410;57.636;18.304;2022-07-29T10:55:31;4.60;;;4.40;;
12691;SDS011;6410;57.636;18.304;2022-07-29T10:58:12;4.65;;;4.45;;
12691;SDS011;6410;57.636;18.304;2022-07-29T11:00:43;4.80;;;4.60;;
12691;SDS011;6410;57.636;18.304;2022-07-29T11:06:16;4.57;;;4.47;;
12691;SDS011;6410;57.636;18.304;2022-07-29T11:12:05;4.72;;;4.53;;
12691;SDS011;6410;57.636;18.304;2022-07-29T11:15:13;7.05;;;6.68;;
12691;SDS011;6410;57.636;18.304;2022-07-29T11:18:04;4.68;;;4.50;;
12691;SDS011;6410;57.636;18.304;2022-07-29T11:20:56;5.95;;;5.57;;
12691;SDS011;6410;57.636;18.304;2022-07-29T11:23:26;4.97;;;4.78;;
12691;SDS011;6410;57.636;18.304;2022-07-29T11:26:15;5.22;;;5.03;;
12691;SDS011;6410;57.636;18.304;2022-07-29T11:28:51;5.40;;;5.00;;
12691;SDS011;6410;57.636;18.304;2022-07-29T11:31:37;5.30;;;4.90;;
12691;SDS011;6410;57.636;18.304;2022-07-29T11:34:17;5.00;;;4.80;;
12691;SDS011;6410;57.636;18.304;2022-07-29T11:42:46;5.18;;;4.88;;
12691;SDS011;6410;57.636;18.304;2022-07-29T11:45:20;5.90;;;5.50;;
12691;SDS011;6410;57.636;18.304;2022-07-29T11:48:15;5.40;;;5.20;;
12691;SDS011;6410;57.636;18.304;2022-07-29T11:50:57;5.43;;;5.15;;
12691;SDS011;6410;57.636;18.304;2022-07-29T11:53:26;5.75;;;5.47;;
12691;SDS011;6410;57.636;18.304;2022-07-29T11:56:14;5.40;;;5.20;;
12691;SDS011;6410;57.636;18.304;2022-07-29T11:58:51;5.30;;;4.95;;
12691;SDS011;6410;57.636;18.304;2022-07-29T12:01:35;5.22;;;5.03;;
12691;SDS011;6410;57.636;18.304;2022-07-29T12:04:03;4.47;;;4.28;;
12691;SDS011;6410;57.636;18.304;2022-07-29T12:06:33;4.50;;;4.28;;
12691;SDS011;6410;57.636;18.304;2022-07-29T12:09:06;4.82;;;4.40;;
12691;SDS011;6410;57.636;18.304;2022-07-29T12:11:40;4.60;;;4.32;;
12691;SDS011;6410;57.636;18.304;2022-07-29T12:16:58;4.70;;;4.50;;
12691;SDS011;6410;57.636;18.304;2022-07-29T12:19:27;4.80;;;4.47;;
12691;SDS011;6410;57.636;18.304;2022-07-29T12:21:56;5.00;;;4.70;;
12691;SDS011;6410;57.636;18.304;2022-07-29T12:24:28;4.80;;;4.60;;
12691;SDS011;6410;57.636;18.304;2022-07-29T12:27:10;5.07;;;4.82;;
12691;SDS011;6410;57.636;18.304;2022-07-29T12:29:39;4.90;;;4.60;;
12691;SDS011;6410;57.636;18.304;2022-07-29T12:32:15;4.97;;;4.57;;
12691;SDS011;6410;57.636;18.304;2022-07-29T12:34:45;5.20;;;4.90;;
12691;SDS011;6410;57.636;18.304;2022-07-29T12:37:13;5.45;;;5.22;;
12691;SDS011;6410;57.636;18.304;2022-07-29T12:39:42;5.70;;;5.30;;
12691;SDS011;6410;57.636;18.304;2022-07-29T12:42:12;4.90;;;4.70;;
12691;SDS011;6410;57.636;18.304;2022-07-29T12:44:44;5.10;;;4.90;;
12691;SDS011;6410;57.636;18.304;2022-07-29T12:47:15;5.72;;;5.45;;
12691;SDS011;6410;57.636;18.304;2022-07-29T12:49:44;5.95;;;5.55;;
12691;SDS011;6410;57.636;18.304;2022-07-29T12:52:25;5.75;;;5.53;;
12691;SDS011;6410;57.636;18.304;2022-07-29T12:54:55;5.90;;;5.60;;
12691;SDS011;6410;57.636;18.304;2022-07-29T12:57:24;6.40;;;6.10;;
12691;SDS011;6410;57.636;18.304;2022-07-29T13:00:00;6.80;;;6.50;;
12691;SDS011;6410;57.636;18.304;2022-07-29T13:02:35;6.50;;;6.30;;
12691;SDS011;6410;57.636;18.304;2022-07-29T13:05:07;6.50;;;6.30;;
12691;SDS011;6410;57.636;18.304;2022-07-29T13:07:36;6.60;;;6.40;;
12691;SDS011;6410;57.636;18.304;2022-07-29T13:10:23;6.97;;;6.55;;
12691;SDS011;6410;57.636;18.304;2022-07-29T13:13:02;7.22;;;6.82;;
12691;SDS011;6410;57.636;18.304;2022-07-29T13:15:31;7.60;;;7.20;;
12691;SDS011;6410;57.636;18.304;2022-07-29T13:18:01;7.22;;;6.78;;
12691;SDS011;6410;57.636;18.304;2022-07-29T13:20:31;6.88;;;6.57;;
12691;SDS011;6410;57.636;18.304;2022-07-29T13:23:00;7.03;;;6.82;;
12691;SDS011;6410;57.636;18.304;2022-07-29T13:25:28;6.80;;;6.60;;
12691;SDS011;6410;57.636;18.304;2022-07-29T13:27:58;7.28;;;6.97;;
12691;SDS011;6410;57.636;18.304;2022-07-29T13:30:27;7.68;;;7.38;;
12691;SDS011;6410;57.636;18.304;2022-07-29T13:32:55;7.10;;;6.80;;
12691;SDS011;6410;57.636;18.304;2022-07-29T13:35:25;7.57;;;7.18;;
12691;SDS011;6410;57.636;18.304;2022-07-29T13:37:56;7.72;;;7.32;;
12691;SDS011;6410;57.636;18.304;2022-07-29T13:40:24;7.60;;;7.30;;
12691;SDS011;6410;57.636;18.304;2022-07-29T13:42:52;7.68;;;7.20;;
12691;SDS011;6410;57.636;18.304;2022-07-29T13:45:21;7.90;;;7.50;;
12691;SDS011;6410;57.636;18.304;2022-07-29T13:47:54;7.75;;;7.35;;
12691;SDS011;6410;57.636;18.304;2022-07-29T13:50:22;7.47;;;7.07;;
12691;SDS011;6410;57.636;18.304;2022-07-29T13:52:52;7.50;;;7.20;;
12691;SDS011;6410;57.636;18.304;2022-07-29T13:55:20;7.30;;;7.00;;
12691;SDS011;6410;57.636;18.304;2022-07-29T13:57:49;7.15;;;6.85;;
12691;SDS011;6410;57.636;18.304;2022-07-29T14:00:17;7.18;;;6.88;;
12691;SDS011;6410;57.636;18.304;2022-07-29T14:02:46;7.20;;;6.90;;
12691;SDS011;6410;57.636;18.304;2022-07-29T14:05:14;7.82;;;7.40;;
12691;SDS011;6410;57.636;18.304;2022-07-29T14:07:44;8.18;;;7.78;;
12691;SDS011;6410;57.636;18.304;2022-07-29T14:10:12;7.38;;;7.07;;
12691;SDS011;6410;57.636;18.304;2022-07-29T14:12:45;7.15;;;6.88;;
12691;SDS011;6410;57.636;18.304;2022-07-29T14:15:13;7.75;;;7.32;;
12691;SDS011;6410;57.636;18.304;2022-07-29T14:17:42;7.18;;;6.97;;
12691;SDS011;6410;57.636;18.304;2022-07-29T14:20:10;7.70;;;7.20;;
12691;SDS011;6410;57.636;18.304;2022-07-29T14:22:38;8.10;;;7.70;;
12691;SDS011;6410;57.636;18.304;2022-07-29T14:25:11;7.70;;;7.20;;
12691;SDS011;6410;57.636;18.304;2022-07-29T14:27:41;7.00;;;6.70;;
12691;SDS011;6410;57.636;18.304;2022-07-29T14:30:10;7.13;;;6.72;;
12691;SDS011;6410;57.636;18.304;2022-07-29T14:32:39;7.22;;;6.82;;
12691;SDS011;6410;57.636;18.304;2022-07-29T14:35:07;7.10;;;6.80;;
12691;SDS011;6410;57.636;18.304;2022-07-29T14:37:37;7.07;;;6.72;;
12691;SDS011;6410;57.636;18.304;2022-07-29T14:40:06;7.50;;;7.20;;
12691;SDS011;6410;57.636;18.304;2022-07-29T14:42:38;7.65;;;7.35;;
12691;SDS011;6410;57.636;18.304;2022-07-29T14:45:07;7.60;;;7.20;;
12691;SDS011;6410;57.636;18.304;2022-07-29T14:47:37;7.30;;;6.90;;
12691;SDS011;6410;57.636;18.304;2022-07-29T14:50:06;7.03;;;6.72;;
12691;SDS011;6410;57.636;18.304;2022-07-29T14:52:35;7.65;;;7.35;;
12691;SDS011;6410;57.636;18.304;2022-07-29T14:55:03;7.68;;;7.28;;
12691;SDS011;6410;57.636;18.304;2022-07-29T14:57:43;7.63;;;7.13;;
12691;SDS011;6410;57.636;18.304;2022-07-29T15:00:11;8.05;;;7.65;;
12691;SDS011;6410;57.636;18.304;2022-07-29T15:02:41;7.13;;;6.82;;
12691;SDS011;6410;57.636;18.304;2022-07-29T15:05:28;7.40;;;7.10;;
12691;SDS011;6410;57.636;18.304;2022-07-29T15:07:56;7.55;;;7.10;;
12691;SDS011;6410;57.636;18.304;2022-07-29T15:10:25;7.22;;;6.93;;
12691;SDS011;6410;57.636;18.304;2022-07-29T15:12:55;7.55;;;7.20;;
12691;SDS011;6410;57.636;18.304;2022-07-29T15:15:23;7.80;;;7.40;;
12691;SDS011;6410;57.636;18.304;2022-07-29T15:17:52;7.43;;;7.03;;
12691;SDS011;6410;57.636;18.304;2022-07-29T15:20:20;7.25;;;6.82;;
12691;SDS011;6410;57.636;18.304;2022-07-29T15:22:51;7.45;;;7.10;;
12691;SDS011;6410;57.636;18.304;2022-07-29T15:25:21;7.55;;;7.25;;
12691;SDS011;6410;57.636;18.304;2022-07-29T15:27:50;7.65;;;7.20;;
12691;SDS011;6410;57.636;18.304;2022-07-29T15:30:25;7.50;;;7.20;;
12691;SDS011;6410;57.636;18.304;2022-07-29T15:32:59;7.57;;;7.22;;